This is the latest recevied weather packets stored in our database for station/object PY2FLB-13. If no packets are shown the sender has not sent any weather packets the latest 10 day(s).
| Time | Temp. | Humidity | Pressure | Rain* | Wind** | Luminosity | Snow |
|---|---|---|---|---|---|---|---|
| 1778033869 | 26.11° C | 46% | 1018.1 hPa | - | - | - | - |
| 1778033569 | 26.11° C | 47% | 1018.1 hPa | - | - | - | - |
| 1778033269 | 26.67° C | 46% | 1018.1 hPa | - | - | - | - |
| 1778032969 | 26.11° C | 47% | 1018.1 hPa | - | - | - | - |
| 1778032669 | 26.11° C | 47% | 1018.1 hPa | - | - | - | - |
| 1778032369 | 26.11° C | 47% | 1018 hPa | - | - | - | - |
| 1778032069 | 26.67° C | 46% | 1018 hPa | - | - | - | - |
| 1778031769 | 26.11° C | 47% | 1018.1 hPa | - | - | - | - |
| 1778031469 | 26.11° C | 47% | 1018.1 hPa | - | - | - | - |
| 1778031169 | 26.11° C | 47% | 1018.1 hPa | - | - | - | - |
| 1778030867 | 27.22° C | 45% | 1017.8 hPa | - | - | - | - |
| 1778030569 | 26.11° C | 48% | 1018.1 hPa | - | - | - | - |
| 1778030269 | 26.67° C | 47% | 1018 hPa | - | - | - | - |
| 1778029970 | 26.67° C | 47% | 1018.1 hPa | - | - | - | - |
| 1778029669 | 26.11° C | 48% | 1018 hPa | - | - | - | - |
| 1778029369 | 26.11° C | 48% | 1018.1 hPa | - | - | - | - |
| 1778029069 | 26.11° C | 48% | 1018.1 hPa | - | - | - | - |
| 1778028769 | 26.11° C | 48% | 1018.1 hPa | - | - | - | - |
| 1778028469 | 26.67° C | 48% | 1018.1 hPa | - | - | - | - |
| 1778028169 | 26.67° C | 47% | 1018 hPa | - | - | - | - |
| 1778027869 | 26.67° C | 47% | 1018 hPa | - | - | - | - |
| 1778027569 | 27.22° C | 46% | 1017.8 hPa | - | - | - | - |
| 1778027269 | 27.22° C | 46% | 1017.8 hPa | - | - | - | - |
| 1778026969 | 27.22° C | 46% | 1017.7 hPa | - | - | - | - |
| 1778026669 | 27.78° C | 45% | 1017.7 hPa | - | - | - | - |
* Rain since midnight (hover to see other rain measurements)
** Current wind speed in m/s (hover to see current wind gust speed)